Time;durP1;ratioP1;P1;durP2;ratioP2;P2;SDS_P1;SDS_P2;PMS_P1;PMS_P2;Temp;Humidity;BMP_temperature;BMP_pressure;BME280_temperature;BME280_humidity;BME280_pressure;Samples;Min_cycle;Max_cycle;Signal;HPM_P1;HPM_P2
2022/11/15 00:00:24;;;;;;;16.20;11.95;;;9.90;99.90;;;;;;4944791;28;20225;-64
2022/11/15 00:02:49;;;;;;;16.33;12.13;;;9.90;99.90;;;;;;4946265;28;20283;-64
2022/11/15 00:05:15;;;;;;;16.00;11.85;;;10.00;99.90;;;;;;4939290;28;20106;-63
2022/11/15 00:07:40;;;;;;;17.60;12.45;;;10.10;99.90;;;;;;4942894;28;20046;-63
2022/11/15 00:10:06;;;;;;;19.80;12.73;;;10.10;99.90;;;;;;4943488;28;20037;-63
2022/11/15 00:12:32;;;;;;;17.58;12.05;;;10.10;99.90;;;;;;4944971;28;20027;-63
2022/11/15 00:14:57;;;;;;;15.93;11.43;;;10.10;99.90;;;;;;4942778;28;20121;-63
2022/11/15 00:17:23;;;;;;;16.77;12.82;;;10.10;99.90;;;;;;4941485;28;20055;-64
2022/11/15 00:19:49;;;;;;;16.65;11.52;;;10.10;99.90;;;;;;4941660;28;20143;-64
2022/11/15 00:22:14;;;;;;;15.30;11.27;;;10.10;99.90;;;;;;4952061;28;20038;-63
2022/11/15 00:24:40;;;;;;;19.15;12.45;;;10.20;99.90;;;;;;4954485;28;20035;-63
2022/11/15 00:27:05;;;;;;;19.45;12.77;;;10.10;99.90;;;;;;4955004;28;20039;-63
2022/11/15 00:29:31;;;;;;;15.80;12.00;;;10.10;99.90;;;;;;4943479;28;20129;-64
2022/11/15 00:31:56;;;;;;;17.08;12.27;;;10.10;99.90;;;;;;4942994;28;20066;-63
2022/11/15 00:34:22;;;;;;;17.80;11.95;;;10.20;99.90;;;;;;4941678;28;20093;-63
2022/11/15 00:36:48;;;;;;;21.33;12.57;;;10.20;99.90;;;;;;4950500;28;20039;-64
2022/11/15 00:39:13;;;;;;;16.33;11.75;;;10.20;99.90;;;;;;4937627;28;20031;-64
2022/11/15 00:41:39;;;;;;;18.77;11.63;;;10.20;99.90;;;;;;4931895;28;20071;-64
2022/11/15 00:44:04;;;;;;;17.05;12.88;;;10.30;99.90;;;;;;4946249;28;20154;-63
2022/11/15 00:46:30;;;;;;;18.95;11.82;;;10.30;99.90;;;;;;4932459;28;20077;-63
2022/11/15 00:48:55;;;;;;;18.58;11.00;;;10.30;99.90;;;;;;4947746;28;20042;-63
2022/11/15 00:51:21;;;;;;;17.13;11.57;;;10.30;99.90;;;;;;4935216;28;20046;-63
2022/11/15 00:53:46;;;;;;;17.42;11.90;;;10.30;99.90;;;;;;4940986;28;20547;-63
2022/11/15 00:56:12;;;;;;;18.63;12.27;;;10.40;99.90;;;;;;4939064;28;20046;-63
2022/11/15 00:58:37;;;;;;;19.80;12.30;;;10.40;99.90;;;;;;4944993;28;20038;-63
2022/11/15 01:01:12;;;;;;;17.45;12.13;;;10.40;99.90;;;;;;4937389;28;20046;-64
2022/11/15 01:03:39;;;;;;;17.58;11.68;;;10.40;99.90;;;;;;4939617;28;20825;-64
2022/11/15 01:06:06;;;;;;;15.80;11.32;;;10.50;99.90;;;;;;4947333;28;20047;-64
2022/11/15 01:08:32;;;;;;;17.33;11.45;;;10.60;99.90;;;;;;4942016;28;20043;-64
2022/11/15 01:11:06;;;;;;;16.92;10.93;;;10.50;99.90;;;;;;4935928;28;20051;-63
2022/11/15 01:13:33;;;;;;;15.02;11.10;;;10.50;99.90;;;;;;4937969;28;20094;-64
2022/11/15 01:16:06;;;;;;;17.40;11.27;;;10.50;99.90;;;;;;4938769;28;20054;-64
2022/11/15 01:18:32;;;;;;;17.15;10.95;;;10.60;99.90;;;;;;4937839;28;20043;-63
2022/11/15 01:20:57;;;;;;;17.52;11.48;;;10.60;99.90;;;;;;4940743;28;20043;-64
2022/11/15 01:23:23;;;;;;;15.52;11.02;;;10.60;99.90;;;;;;4954217;28;20034;-63
2022/11/15 01:25:48;;;;;;;16.60;10.50;;;10.60;99.90;;;;;;4941555;28;20039;-64
2022/11/15 01:28:14;;;;;;;16.25;11.07;;;10.60;99.90;;;;;;4966289;28;20232;-63
2022/11/15 01:30:39;;;;;;;15.65;10.50;;;10.60;99.90;;;;;;4965418;28;20039;-64
2022/11/15 01:33:05;;;;;;;17.95;11.57;;;10.70;99.90;;;;;;4960033;28;20074;-64
2022/11/15 01:35:30;;;;;;;15.63;10.63;;;10.70;99.90;;;;;;4960185;28;20090;-63
2022/11/15 01:37:56;;;;;;;14.65;10.68;;;10.70;99.90;;;;;;4959707;28;20045;-63
2022/11/15 01:40:21;;;;;;;13.20;10.15;;;10.70;99.90;;;;;;4957793;28;20087;-63
2022/11/15 01:42:47;;;;;;;17.23;10.60;;;10.70;99.90;;;;;;4966494;28;20093;-64
2022/11/15 01:45:14;;;;;;;13.20;9.75;;;10.70;99.90;;;;;;4961611;28;20086;-64
2022/11/15 01:47:47;;;;;;;15.50;10.30;;;10.80;99.90;;;;;;4942362;28;20046;-64
2022/11/15 01:50:17;;;;;;;17.40;10.60;;;10.80;99.90;;;;;;4942570;28;20035;-64
2022/11/15 01:52:43;;;;;;;16.17;10.27;;;10.80;99.90;;;;;;4944245;28;20027;-64
2022/11/15 01:55:15;;;;;;;16.35;9.90;;;10.80;99.90;;;;;;4965786;28;20026;-63
2022/11/15 01:57:42;;;;;;;15.30;10.30;;;10.80;99.90;;;;;;4964720;28;20035;-64
2022/11/15 02:00:09;;;;;;;15.93;10.65;;;10.80;99.90;;;;;;4958299;28;20034;-64
2022/11/15 02:02:36;;;;;;;16.02;10.20;;;10.80;99.90;;;;;;4969043;28;20519;-63
2022/11/15 02:05:03;;;;;;;15.25;10.35;;;10.80;99.90;;;;;;4961557;28;20038;-63
2022/11/15 02:07:30;;;;;;;14.70;10.43;;;10.90;99.90;;;;;;4965980;28;20679;-63
2022/11/15 02:10:03;;;;;;;14.95;10.57;;;10.90;99.90;;;;;;4961877;28;20023;-63
2022/11/15 02:12:29;;;;;;;;;;;10.90;99.90;;;;;;4962810;28;20145;-63
2022/11/15 02:14:56;;;;;;;16.70;10.70;;;10.90;99.90;;;;;;4960225;28;20404;-64
2022/11/15 02:17:49;;;;;;;14.38;10.07;;;10.90;99.90;;;;;;4960828;28;20043;-64
2022/11/15 02:20:37;;;;;;;16.48;10.82;;;10.90;99.90;;;;;;4954038;28;20031;-63
2022/11/15 02:23:23;;;;;;;14.52;9.85;;;10.90;99.90;;;;;;4951835;28;20034;-64
2022/11/15 02:26:01;;;;;;;16.92;9.80;;;10.90;99.90;;;;;;4966044;28;20063;-64
2022/11/15 02:28:41;;;;;;;16.00;9.23;;;10.90;99.90;;;;;;4945712;28;20048;-64
2022/11/15 02:31:35;;;;;;;16.13;9.95;;;11.00;99.90;;;;;;4959808;28;20140;-63
2022/11/15 02:34:28;;;;;;;12.25;9.00;;;11.00;99.90;;;;;;4953682;28;20126;-63
2022/11/15 02:37:13;;;;;;;15.23;10.00;;;11.00;99.90;;;;;;4939390;28;20031;-64
2022/11/15 02:39:57;;;;;;;15.23;9.52;;;11.00;99.90;;;;;;4953104;28;20055;-64
2022/11/15 02:45:23;;;;;;;13.65;9.40;;;11.10;99.90;;;;;;4939141;28;20038;-63
2022/11/15 02:47:52;;;;;;;17.05;10.25;;;11.10;99.90;;;;;;4951764;28;20044;-64
2022/11/15 02:50:22;;;;;;;12.98;9.57;;;11.10;99.90;;;;;;4959513;28;20046;-63
2022/11/15 02:52:51;;;;;;;13.43;9.10;;;11.10;99.90;;;;;;4965827;28;20179;-64
2022/11/15 02:55:30;;;;;;;13.45;9.20;;;11.10;99.90;;;;;;4954513;28;20066;-63
2022/11/15 02:58:14;;;;;;;11.85;9.05;;;11.10;99.90;;;;;;4961496;28;20704;-63
2022/11/15 03:00:58;;;;;;;15.10;8.95;;;11.20;99.90;;;;;;4959771;28;20066;-63
2022/11/15 03:03:36;;;;;;;13.18;8.32;;;11.30;99.90;;;;;;4964119;28;20124;-63
2022/11/15 03:06:12;;;;;;;12.95;8.48;;;11.30;99.90;;;;;;4969146;28;20038;-63
2022/11/15 03:08:51;;;;;;;16.58;9.35;;;11.30;99.90;;;;;;4969066;28;20035;-64
2022/11/15 03:11:22;;;;;;;11.57;8.93;;;11.40;99.90;;;;;;4970995;28;20521;-64
2022/11/15 03:14:00;;;;;;;12.20;9.02;;;11.40;99.90;;;;;;4963312;28;20039;-63
2022/11/15 03:16:53;;;;;;;12.65;8.50;;;11.40;99.90;;;;;;4968114;28;20498;-64
2022/11/15 03:19:40;;;;;;;13.10;9.13;;;11.40;99.90;;;;;;4967181;28;20046;-64
2022/11/15 03:22:11;;;;;;;12.30;8.75;;;11.40;99.90;;;;;;4965582;28;20644;-64
2022/11/15 03:24:38;;;;;;;16.38;8.95;;;11.40;99.90;;;;;;4964535;28;20062;-63
2022/11/15 03:27:08;;;;;;;13.70;8.85;;;11.50;99.90;;;;;;4973903;28;20073;-63
2022/11/15 03:29:42;;;;;;;14.32;8.50;;;11.50;99.90;;;;;;4971415;28;20101;-63
2022/11/15 03:32:16;;;;;;;11.80;9.38;;;11.50;99.90;;;;;;4961495;28;20734;-63
2022/11/15 03:34:53;;;;;;;12.45;9.07;;;11.50;99.90;;;;;;4948329;28;20079;-63
2022/11/15 03:37:22;;;;;;;17.80;9.75;;;11.60;99.90;;;;;;4966125;28;20043;-63
2022/11/15 03:39:48;;;;;;;13.65;9.27;;;11.60;99.90;;;;;;4961783;28;20311;-63
2022/11/15 03:42:16;;;;;;;16.67;9.50;;;11.60;99.90;;;;;;4969269;28;20034;-63
2022/11/15 03:44:57;;;;;;;17.20;9.77;;;11.60;99.90;;;;;;4963660;28;20054;-63
2022/11/15 03:47:38;;;;;;;17.15;10.02;;;11.60;99.90;;;;;;4969198;28;20043;-63
2022/11/15 03:50:13;;;;;;;13.07;9.05;;;11.70;99.90;;;;;;4966595;28;20047;-63
2022/11/15 03:52:40;;;;;;;15.85;10.02;;;11.70;99.90;;;;;;4956440;28;20495;-63
2022/11/15 03:55:09;;;;;;;16.67;9.75;;;11.60;99.90;;;;;;4949992;28;20067;-63
2022/11/15 03:57:34;;;;;;;14.43;9.07;;;11.70;99.90;;;;;;4958182;28;20787;-63
2022/11/15 04:00:00;;;;;;;13.38;9.68;;;11.70;99.90;;;;;;4954732;28;20042;-63
2022/11/15 04:02:25;;;;;;;15.05;9.02;;;11.70;99.90;;;;;;4959369;28;20067;-63
2022/11/15 04:04:51;;;;;;;14.38;9.93;;;11.70;99.90;;;;;;4959980;28;20054;-63
2022/11/15 04:07:17;;;;;;;13.55;9.05;;;11.70;99.90;;;;;;4964103;28;20047;-63
2022/11/15 04:12:33;;;;;;;15.73;9.25;;;11.70;99.90;;;;;;4963235;28;20062;-63
2022/11/15 04:15:07;;;;;;;15.38;9.65;;;11.70;99.90;;;;;;4972727;28;20045;-63
2022/11/15 04:17:49;;;;;;;14.18;9.30;;;11.70;99.90;;;;;;4964124;28;20677;-63
2022/11/15 04:25:52;;;;;;;12.65;9.07;;;11.80;99.90;;;;;;4941742;28;20075;-63
2022/11/15 04:28:18;;;;;;;14.02;9.38;;;11.80;99.90;;;;;;4936267;28;20201;-63
2022/11/15 04:30:43;;;;;;;13.43;9.15;;;11.80;99.90;;;;;;4936622;28;20114;-63
2022/11/15 04:33:09;;;;;;;10.60;8.77;;;11.80;99.90;;;;;;4935790;28;20046;-63
2022/11/15 04:35:34;;;;;;;13.52;8.73;;;11.80;99.90;;;;;;4935929;28;20608;-63
2022/11/15 04:38:01;;;;;;;12.45;9.20;;;11.90;99.90;;;;;;4933019;28;20031;-63
2022/11/15 04:40:27;;;;;;;12.15;8.32;;;11.80;99.90;;;;;;4945873;28;20046;-63
2022/11/15 04:42:52;;;;;;;14.07;8.68;;;11.80;99.90;;;;;;4945207;28;20031;-63
2022/11/15 04:45:18;;;;;;;10.88;8.82;;;11.80;99.90;;;;;;4939232;28;20133;-63
2022/11/15 04:47:45;;;;;;;11.02;8.35;;;11.80;99.90;;;;;;4931162;28;20040;-63
2022/11/15 04:50:14;;;;;;;11.05;8.63;;;11.80;99.90;;;;;;4942362;28;20035;-63
2022/11/15 04:52:49;;;;;;;11.75;8.48;;;11.80;99.90;;;;;;4945806;28;20044;-63
2022/11/15 04:55:15;;;;;;;11.77;8.43;;;11.90;99.90;;;;;;4935948;28;20074;-63
2022/11/15 04:57:40;;;;;;;11.80;8.60;;;11.80;99.90;;;;;;4934584;28;20065;-63
2022/11/15 05:00:12;;;;;;;11.30;7.65;;;11.90;99.90;;;;;;4937275;28;20554;-63
2022/11/15 05:05:23;;;;;;;13.00;8.95;;;12.00;99.90;;;;;;4931961;28;20510;-63
2022/11/15 05:07:48;;;;;;;15.52;8.98;;;12.00;99.90;;;;;;4942346;28;20039;-63
2022/11/15 05:10:14;;;;;;;12.00;9.00;;;12.00;99.90;;;;;;4935283;28;20031;-63
2022/11/15 05:12:39;;;;;;;12.60;8.52;;;11.90;99.90;;;;;;4940101;28;20031;-63
2022/11/15 05:15:06;;;;;;;14.50;9.27;;;11.90;99.90;;;;;;4943266;28;20038;-63
2022/11/15 05:17:31;;;;;;;16.80;9.57;;;11.90;99.90;;;;;;4949225;28;20045;-63
2022/11/15 05:19:57;;;;;;;14.68;9.20;;;12.10;99.90;;;;;;4947231;28;20447;-63
2022/11/15 05:22:22;;;;;;;11.27;8.60;;;12.00;99.90;;;;;;4939362;28;20038;-64
2022/11/15 05:24:48;;;;;;;11.73;8.43;;;12.00;99.90;;;;;;4939019;28;20574;-63
2022/11/15 05:27:14;;;;;;;13.85;8.90;;;12.00;99.90;;;;;;4932394;28;20039;-63
2022/11/15 05:29:39;;;;;;;12.93;8.77;;;12.00;99.90;;;;;;4932911;28;20146;-63
2022/11/15 05:32:07;;;;;;;11.68;8.57;;;12.00;99.90;;;;;;4937024;28;20045;-63
2022/11/15 05:34:32;;;;;;;11.32;8.02;;;12.00;99.90;;;;;;4934813;28;20039;-63
2022/11/15 05:36:59;;;;;;;12.88;8.27;;;12.00;99.90;;;;;;4940813;28;20035;-63
2022/11/15 05:39:25;;;;;;;12.38;8.15;;;11.90;99.90;;;;;;4935937;28;20070;-63
2022/11/15 05:41:56;;;;;;;10.93;8.52;;;11.90;99.90;;;;;;4937704;28;20131;-63
2022/11/15 05:44:23;;;;;;;11.95;7.55;;;11.90;99.90;;;;;;4944875;28;20050;-63
2022/11/15 05:46:53;;;;;;;12.27;8.48;;;12.00;99.90;;;;;;4941307;28;20342;-63
2022/11/15 05:49:21;;;;;;;9.90;7.93;;;12.00;99.90;;;;;;4942761;28;20125;-63
2022/11/15 05:51:49;;;;;;;14.15;8.27;;;11.90;99.90;;;;;;4949162;28;20046;-64
2022/11/15 05:54:17;;;;;;;11.40;8.15;;;12.00;99.90;;;;;;4939317;28;20849;-63
2022/11/15 05:56:43;;;;;;;10.10;7.90;;;11.90;99.90;;;;;;4934497;28;20028;-63
2022/11/15 05:59:10;;;;;;;14.30;8.35;;;12.00;99.90;;;;;;4935204;28;20035;-63
2022/11/15 06:01:36;;;;;;;12.25;7.57;;;11.90;99.90;;;;;;4940349;28;20047;-63
2022/11/15 06:04:02;;;;;;;11.05;7.82;;;11.90;99.90;;;;;;4932429;28;20061;-63
2022/11/15 06:06:28;;;;;;;11.18;7.45;;;11.90;99.90;;;;;;4935618;28;20039;-64
2022/11/15 06:08:54;;;;;;;13.52;8.05;;;12.00;99.90;;;;;;4937084;28;20523;-63
2022/11/15 06:11:19;;;;;;;9.90;7.30;;;12.00;99.90;;;;;;4933632;28;20105;-63
2022/11/15 06:13:45;;;;;;;11.20;7.75;;;12.00;99.90;;;;;;4934284;28;20087;-63
2022/11/15 06:16:10;;;;;;;10.52;7.75;;;12.00;99.90;;;;;;4936856;28;20039;-63
2022/11/15 06:18:37;;;;;;;9.98;7.90;;;12.00;99.90;;;;;;4934253;28;20356;-63
2022/11/15 06:21:02;;;;;;;11.48;7.18;;;12.00;99.90;;;;;;4941085;28;20036;-63
2022/11/15 06:23:32;;;;;;;10.65;7.32;;;12.00;99.90;;;;;;4936349;28;20125;-63
2022/11/15 06:25:58;;;;;;;9.30;7.57;;;12.00;99.90;;;;;;4938623;28;20063;-63
2022/11/15 06:28:24;;;;;;;13.30;7.40;;;12.00;99.90;;;;;;4940954;28;20034;-63
2022/11/15 06:30:50;;;;;;;8.95;7.00;;;12.00;99.90;;;;;;4935291;28;20031;-63
2022/11/15 06:33:15;;;;;;;9.80;7.20;;;12.00;99.90;;;;;;4938356;28;20039;-63
2022/11/15 06:35:41;;;;;;;11.48;7.10;;;12.10;99.90;;;;;;4939945;28;20094;-63
2022/11/15 06:38:09;;;;;;;13.35;7.45;;;12.10;99.90;;;;;;4941312;28;20047;-63
2022/11/15 06:40:36;;;;;;;10.18;6.90;;;12.10;99.90;;;;;;4942561;28;20436;-63
2022/11/15 06:43:03;;;;;;;9.18;6.63;;;12.10;99.90;;;;;;4936275;28;20043;-63
2022/11/15 06:45:29;;;;;;;9.77;6.32;;;12.00;99.90;;;;;;4937536;28;20114;-63
2022/11/15 06:47:55;;;;;;;9.60;6.82;;;12.00;99.90;;;;;;4943523;28;20131;-63
2022/11/15 06:50:21;;;;;;;7.97;6.43;;;12.10;99.90;;;;;;4931809;28;20035;-63
2022/11/15 06:52:46;;;;;;;9.38;6.75;;;12.10;99.90;;;;;;4932246;28;20042;-63
2022/11/15 06:55:12;;;;;;;7.35;6.40;;;12.10;99.90;;;;;;4934930;28;20039;-63
2022/11/15 06:57:46;;;;;;;10.10;6.53;;;12.20;99.90;;;;;;4937362;28;20027;-63
2022/11/15 07:00:12;;;;;;;7.95;6.47;;;12.20;99.90;;;;;;4936515;28;20034;-63
2022/11/15 07:02:38;;;;;;;9.27;6.03;;;12.20;99.90;;;;;;4937851;28;20122;-63
2022/11/15 07:05:04;;;;;;;7.32;6.32;;;12.20;99.90;;;;;;4945593;28;20099;-63
2022/11/15 07:07:29;;;;;;;7.30;6.00;;;12.10;99.90;;;;;;4944410;28;20047;-63
2022/11/15 07:09:55;;;;;;;7.65;6.00;;;12.10;99.90;;;;;;4941807;28;20830;-63
2022/11/15 07:12:20;;;;;;;9.10;6.28;;;12.10;99.90;;;;;;4944474;28;20026;-63
2022/11/15 07:14:46;;;;;;;9.55;5.68;;;12.10;99.90;;;;;;4929400;28;20032;-63
2022/11/15 07:17:11;;;;;;;8.55;5.20;;;12.10;99.90;;;;;;4943415;28;20348;-63
2022/11/15 07:19:37;;;;;;;5.57;4.90;;;12.10;99.90;;;;;;4943485;28;20751;-63
2022/11/15 07:22:03;;;;;;;7.15;4.07;;;12.10;99.90;;;;;;4939034;28;20458;-63
2022/11/15 07:24:28;;;;;;;41.35;29.98;;;12.10;99.90;;;;;;4943967;28;20051;-66
2022/11/15 07:26:54;;;;;;;6.38;4.20;;;12.20;99.90;;;;;;4940193;28;20039;-65
2022/11/15 07:29:19;;;;;;;7.55;3.35;;;12.20;99.90;;;;;;4940977;28;20038;-67
2022/11/15 07:31:45;;;;;;;3.22;1.98;;;12.30;99.90;;;;;;4937132;28;20031;-65
2022/11/15 07:34:10;;;;;;;3.00;2.00;;;12.20;99.90;;;;;;4942404;28;20039;-65
2022/11/15 07:36:36;;;;;;;3.95;1.83;;;12.10;99.90;;;;;;4936144;28;20407;-65
2022/11/15 07:39:02;;;;;;;3.90;1.77;;;12.10;99.90;;;;;;4940637;28;20094;-65
2022/11/15 07:41:29;;;;;;;3.97;1.85;;;12.00;99.90;;;;;;4934050;28;20036;-65
2022/11/15 07:43:54;;;;;;;3.78;1.70;;;12.00;99.90;;;;;;4938021;28;20535;-65
2022/11/15 07:46:20;;;;;;;2.05;1.55;;;11.90;99.90;;;;;;4944482;28;20038;-65
2022/11/15 07:48:45;;;;;;;2.45;1.75;;;11.90;99.90;;;;;;4941628;28;20049;-65
2022/11/15 07:51:13;;;;;;;2.45;1.55;;;11.80;99.90;;;;;;4939050;28;20031;-65
2022/11/15 07:53:38;;;;;;;3.85;1.50;;;11.80;99.90;;;;;;4947880;28;20093;-65
2022/11/15 07:56:07;;;;;;;5.22;1.60;;;11.80;99.90;;;;;;4941013;28;20062;-65
2022/11/15 07:58:32;;;;;;;8.95;1.33;;;11.70;99.90;;;;;;4953938;28;20034;-66
2022/11/15 08:00:58;;;;;;;2.45;1.35;;;11.60;99.90;;;;;;4942465;28;20109;-66
2022/11/15 08:03:23;;;;;;;6.47;2.45;;;11.50;99.90;;;;;;4941312;28;20046;-66
2022/11/15 08:05:52;;;;;;;1.20;1.10;;;11.40;99.90;;;;;;4936356;28;20067;-66
2022/11/15 08:08:18;;;;;;;1.95;1.23;;;11.50;99.90;;;;;;4941129;28;20035;-67
2022/11/15 08:10:44;;;;;;;4.97;1.50;;;11.60;99.90;;;;;;4935312;28;20038;-66
2022/11/15 08:13:11;;;;;;;2.33;1.25;;;11.60;99.90;;;;;;4940985;28;20023;-66
2022/11/15 08:15:37;;;;;;;2.97;1.30;;;11.60;99.90;;;;;;4936399;28;20969;-66
2022/11/15 08:18:15;;;;;;;2.78;1.63;;;11.80;99.90;;;;;;4940643;28;20656;-66
2022/11/15 08:20:41;;;;;;;4.32;1.40;;;11.70;99.90;;;;;;4931954;28;20043;-66
2022/11/15 08:23:10;;;;;;;3.58;1.77;;;11.50;99.90;;;;;;4941767;28;20623;-66
2022/11/15 08:25:35;;;;;;;4.10;1.50;;;11.40;99.90;;;;;;4941849;28;20042;-65
2022/11/15 08:28:04;;;;;;;6.30;2.00;;;11.40;99.90;;;;;;4942739;28;20039;-66
2022/11/15 08:30:30;;;;;;;5.75;2.92;;;11.50;99.90;;;;;;4941130;28;20106;-66
2022/11/15 08:32:57;;;;;;;5.55;2.22;;;11.70;99.90;;;;;;4939454;28;20032;-66
2022/11/15 08:35:23;;;;;;;4.50;2.13;;;11.80;99.90;;;;;;4940299;28;20028;-66
2022/11/15 08:37:49;;;;;;;2.75;1.40;;;11.90;99.90;;;;;;4941318;28;20110;-66
2022/11/15 08:40:15;;;;;;;3.63;1.45;;;11.80;99.90;;;;;;4960330;28;20027;-66
2022/11/15 08:42:41;;;;;;;3.22;1.40;;;11.70;99.90;;;;;;4951067;28;20098;-66
2022/11/15 08:45:07;;;;;;;3.00;1.30;;;11.80;99.90;;;;;;4945634;28;20050;-66
2022/11/15 08:47:33;;;;;;;2.33;1.40;;;11.90;99.90;;;;;;4947524;28;20051;-66
2022/11/15 08:49:59;;;;;;;4.30;1.80;;;12.00;99.90;;;;;;4937103;28;20105;-66
2022/11/15 08:52:24;;;;;;;5.03;2.00;;;12.10;99.90;;;;;;4937910;28;20133;-66
2022/11/15 08:54:50;;;;;;;2.65;2.00;;;12.00;99.90;;;;;;4940656;28;20118;-66
2022/11/15 08:57:15;;;;;;;6.55;1.90;;;12.10;99.90;;;;;;4936514;28;20392;-66
2022/11/15 08:59:41;;;;;;;2.50;1.60;;;12.10;99.90;;;;;;4938962;28;20102;-66
2022/11/15 09:02:12;;;;;;;4.28;1.50;;;12.10;99.90;;;;;;4941306;28;20043;-66
2022/11/15 09:04:43;;;;;;;3.40;1.83;;;12.10;99.90;;;;;;4944740;28;20043;-65
2022/11/15 09:07:10;;;;;;;3.05;1.42;;;12.00;99.90;;;;;;4939889;28;20045;-65
2022/11/15 09:09:36;;;;;;;1.95;1.50;;;12.10;99.90;;;;;;4940657;28;20047;-66
2022/11/15 09:12:01;;;;;;;3.35;1.70;;;12.20;99.90;;;;;;4941807;28;20035;-66
2022/11/15 09:14:27;;;;;;;2.58;1.58;;;12.10;99.90;;;;;;4943361;28;20556;-66
2022/11/15 09:16:52;;;;;;;3.63;1.60;;;12.10;99.90;;;;;;4935489;28;20058;-66
2022/11/15 09:19:18;;;;;;;2.40;1.70;;;12.10;99.90;;;;;;4937190;28;20032;-66
2022/11/15 09:21:43;;;;;;;25.77;17.25;;;12.10;99.90;;;;;;4937682;28;20035;-66
2022/11/15 09:24:09;;;;;;;3.58;2.70;;;12.10;99.90;;;;;;4944772;28;20043;-66
2022/11/15 09:26:34;;;;;;;3.03;1.60;;;12.10;99.90;;;;;;4942141;28;20130;-66
2022/11/15 09:29:01;;;;;;;1.80;1.10;;;12.20;99.90;;;;;;4938688;28;20051;-66
2022/11/15 09:31:27;;;;;;;4.90;1.60;;;12.20;99.90;;;;;;4939319;28;20039;-66
2022/11/15 09:33:52;;;;;;;2.67;1.88;;;12.30;99.90;;;;;;4940265;28;20098;-65
2022/11/15 09:36:18;;;;;;;3.45;1.50;;;12.30;99.90;;;;;;4943038;28;20038;-66
2022/11/15 09:38:43;;;;;;;1.98;1.48;;;12.20;99.90;;;;;;4939982;28;20043;-66
2022/11/15 09:41:12;;;;;;;46.38;33.53;;;12.10;99.90;;;;;;4939901;28;20039;-65
2022/11/15 09:44:12;;;;;;;5.78;3.13;;;12.20;99.90;;;;;;4940488;28;20712;-67
2022/11/15 09:46:58;;;;;;;4.38;1.60;;;12.30;99.90;;;;;;4932859;28;20050;-67
2022/11/15 09:49:24;;;;;;;4.85;1.90;;;12.40;99.90;;;;;;4948435;28;20040;-67
2022/11/15 09:51:53;;;;;;;3.95;1.80;;;12.40;99.90;;;;;;4945784;28;20065;-67
2022/11/15 09:54:38;;;;;;;5.68;2.13;;;12.40;99.90;;;;;;4941789;28;20064;-67
2022/11/15 09:57:09;;;;;;;2.63;1.98;;;12.50;99.90;;;;;;4940400;28;20732;-68
2022/11/15 09:59:48;;;;;;;3.53;2.58;;;12.50;99.90;;;;;;4935640;28;20305;-67
2022/11/15 10:02:40;;;;;;;7.47;2.80;;;12.60;99.90;;;;;;4940089;28;20122;-67
2022/11/15 10:05:12;;;;;;;4.82;2.65;;;12.60;99.90;;;;;;4935526;28;20043;-67
2022/11/15 10:07:48;;;;;;;4.95;2.60;;;12.50;99.90;;;;;;4938236;28;20087;-67
2022/11/15 10:10:46;;;;;;;4.15;2.28;;;12.50;99.90;;;;;;4943138;28;20045;-67
2022/11/15 10:13:33;;;;;;;5.90;2.50;;;12.60;99.90;;;;;;4940376;28;20035;-67
2022/11/15 10:16:38;;;;;;;2.78;1.95;;;12.60;99.90;;;;;;4939075;28;20055;-67
2022/11/15 10:19:17;;;;;;;4.85;2.08;;;12.50;99.90;;;;;;4941059;28;20030;-67
2022/11/15 10:22:05;;;;;;;3.80;1.70;;;12.50;99.90;;;;;;4961782;28;20108;-67
2022/11/15 10:24:35;;;;;;;7.22;1.80;;;12.50;99.90;;;;;;4956403;28;20459;-67
2022/11/15 10:27:00;;;;;;;2.85;1.60;;;12.50;99.90;;;;;;4957174;28;20066;-67
2022/11/15 10:29:26;;;;;;;33.42;25.45;;;12.50;99.90;;;;;;4954975;28;20065;-68
2022/11/15 10:31:52;;;;;;;8.45;3.22;;;12.60;99.90;;;;;;4964741;28;20106;-67
2022/11/15 10:34:21;;;;;;;5.57;1.80;;;12.60;99.90;;;;;;4962734;28;20712;-67
2022/11/15 10:36:58;;;;;;;3.58;1.85;;;12.70;99.90;;;;;;4966541;28;20139;-67
2022/11/15 10:39:25;;;;;;;6.15;2.42;;;12.70;99.90;;;;;;4938678;28;20035;-67
2022/11/15 10:41:50;;;;;;;4.25;1.98;;;12.60;99.90;;;;;;4940062;28;20086;-67
2022/11/15 10:44:16;;;;;;;3.45;1.67;;;12.60;99.90;;;;;;4945812;28;20790;-67
2022/11/15 10:46:43;;;;;;;3.47;1.90;;;12.60;99.90;;;;;;4972472;28;20081;-67
2022/11/15 10:49:17;;;;;;;6.25;1.90;;;12.60;99.90;;;;;;4957346;28;20125;-67
2022/11/15 10:51:50;;;;;;;4.07;2.08;;;12.60;99.90;;;;;;4960459;28;20034;-67
2022/11/15 10:54:28;;;;;;;6.63;2.00;;;12.60;99.90;;;;;;4959586;28;20055;-67
2022/11/15 10:56:57;;;;;;;3.90;1.80;;;12.60;99.90;;;;;;4958477;28;20560;-67
2022/11/15 10:59:35;;;;;;;6.93;1.67;;;12.70;99.90;;;;;;4956913;28;20035;-67
2022/11/15 11:02:01;;;;;;;4.28;1.77;;;12.60;99.90;;;;;;4957994;28;20069;-67
2022/11/15 11:04:26;;;;;;;4.03;1.65;;;12.60;99.90;;;;;;4957470;28;20498;-67
2022/11/15 11:06:58;;;;;;;3.10;1.70;;;12.60;99.90;;;;;;4955974;28;20061;-67
2022/11/15 11:09:34;;;;;;;3.00;1.73;;;12.70;99.90;;;;;;4961112;28;20043;-67
2022/11/15 11:12:00;;;;;;;4.85;2.20;;;12.70;99.90;;;;;;4959350;28;20050;-67
2022/11/15 11:14:31;;;;;;;6.00;1.90;;;12.70;99.90;;;;;;4944986;28;20102;-67
2022/11/15 11:17:05;;;;;;;4.10;2.00;;;12.70;99.90;;;;;;4944428;28;20031;-67
2022/11/15 11:19:56;;;;;;;4.07;2.30;;;12.70;99.90;;;;;;4946060;28;20042;-67
2022/11/15 11:22:47;;;;;;;8.77;4.72;;;12.70;99.90;;;;;;4955234;28;20031;-67
2022/11/15 11:25:35;;;;;;;4.93;1.90;;;12.70;99.90;;;;;;4957603;28;20038;-67
2022/11/15 11:28:29;;;;;;;4.47;1.85;;;12.70;99.90;;;;;;4963385;28;20061;-67
2022/11/15 11:31:32;;;;;;;4.35;1.88;;;12.70;99.90;;;;;;4957381;28;20023;-67
2022/11/15 11:34:34;;;;;;;4.72;1.70;;;12.70;99.90;;;;;;4950650;28;20127;-67
2022/11/15 11:37:15;;;;;;;3.85;1.65;;;12.80;99.90;;;;;;4938064;28;20165;-67
2022/11/15 11:39:50;;;;;;;2.72;1.50;;;12.80;99.90;;;;;;4942964;28;20085;-67
2022/11/15 11:42:58;;;;;;;7.00;1.70;;;12.80;99.90;;;;;;4947531;28;20023;-67
2022/11/15 11:45:36;;;;;;;4.45;1.77;;;12.80;99.90;;;;;;4946200;28;20045;-67
2022/11/15 11:48:33;;;;;;;4.38;1.63;;;12.80;99.90;;;;;;4940580;28;20578;-67
2022/11/15 11:51:12;;;;;;;3.95;1.42;;;12.90;99.90;;;;;;4942441;28;20179;-67
2022/11/15 11:53:56;;;;;;;4.65;1.60;;;12.90;99.90;;;;;;4950209;28;20683;-67
2022/11/15 11:56:28;;;;;;;9.00;2.10;;;12.90;99.90;;;;;;4959795;28;20260;-67
2022/11/15 11:59:00;;;;;;;2.33;1.43;;;12.90;99.90;;;;;;4944367;28;20130;-65
2022/11/15 12:01:32;;;;;;;3.88;1.60;;;12.90;99.90;;;;;;4952336;28;21112;-63
2022/11/15 12:04:04;;;;;;;4.63;1.67;;;12.90;99.90;;;;;;4940117;28;20110;-62
2022/11/15 12:06:49;;;;;;;2.53;1.08;;;12.90;99.90;;;;;;4935178;28;20513;-63
2022/11/15 12:09:20;;;;;;;3.83;1.30;;;13.00;99.90;;;;;;4941365;28;20758;-62
2022/11/15 12:11:59;;;;;;;3.25;1.40;;;12.90;99.90;;;;;;4941941;28;20045;-63
2022/11/15 12:14:44;;;;;;;6.72;1.50;;;13.00;99.90;;;;;;4942510;28;20043;-62
2022/11/15 12:17:14;;;;;;;5.93;1.30;;;13.00;99.90;;;;;;4935109;28;20058;-62
2022/11/15 12:19:42;;;;;;;3.65;1.25;;;13.00;99.90;;;;;;4938281;28;20054;-64
2022/11/15 12:22:20;;;;;;;3.83;1.20;;;13.00;99.90;;;;;;4939551;28;20138;-64
2022/11/15 12:24:52;;;;;;;3.35;1.10;;;13.00;99.90;;;;;;4946032;28;21084;-61
2022/11/15 12:27:42;;;;;;;4.13;1.10;;;13.00;99.90;;;;;;4936048;28;20634;-63
2022/11/15 12:30:20;;;;;;;3.78;1.00;;;13.00;99.90;;;;;;4945825;28;20062;-62
2022/11/15 12:32:56;;;;;;;7.57;1.20;;;13.00;99.90;;;;;;4937443;28;20138;-62
2022/11/15 12:35:27;;;;;;;2.92;1.08;;;13.10;99.90;;;;;;4940490;28;20090;-63
2022/11/15 12:37:55;;;;;;;3.95;1.00;;;13.10;99.90;;;;;;4942497;28;20062;-64
2022/11/15 12:41:02;;;;;;;3.30;1.00;;;13.10;99.90;;;;;;4940784;28;20382;-63
2022/11/15 12:43:45;;;;;;;5.97;1.30;;;13.10;99.90;;;;;;4937483;28;20035;-62
2022/11/15 12:46:18;;;;;;;6.70;1.23;;;13.20;99.90;;;;;;4934059;28;20027;-64
2022/11/15 12:48:53;;;;;;;3.22;1.00;;;13.20;99.90;;;;;;4941870;28;20762;-62
2022/11/15 12:51:22;;;;;;;2.75;1.13;;;13.20;99.90;;;;;;4938903;28;20035;-63
2022/11/15 12:53:47;;;;;;;6.47;1.05;;;13.20;99.90;;;;;;4946173;28;20375;-64
2022/11/15 12:56:16;;;;;;;2.83;0.90;;;13.20;99.90;;;;;;4937635;28;20035;-63
2022/11/15 12:58:54;;;;;;;3.35;0.90;;;13.20;99.90;;;;;;4936091;28;20041;-63
2022/11/15 13:01:32;;;;;;;110.60;78.20;;;13.30;99.90;;;;;;4934166;28;20075;-64
2022/11/15 13:04:19;;;;;;;6.20;1.10;;;13.30;99.90;;;;;;4936500;28;20059;-64
2022/11/15 13:06:49;;;;;;;4.53;1.20;;;13.20;99.90;;;;;;4940969;28;20151;-63
2022/11/15 13:09:33;;;;;;;3.83;1.00;;;13.30;99.90;;;;;;4938355;28;20128;-63
2022/11/15 13:12:26;;;;;;;6.93;1.17;;;13.20;99.90;;;;;;4948227;28;20433;-63